Pagrindinis puslapis
METAR-TAF:

METAR-TAF

Oro uostai :

Brevig Mission, Aliaska, Jungtinės Amerikos Valstijos

platuma: 65-19-53N, ilguma: 166-27-57W, Aukštis: 11 m

Dabartinis oras

Ataskaita buvo paskelbta 41 minutes, ne 08:56 UTC
Vėjas 17 kt iš Šiaurės/Šiaurės Rytų su gūsio iki 26 kt
Temperatūra -12°C
Drėgmė 66%
Slėgis 1000 hPa
Matomumas: 16.1 km
Giedras dangus

METAR: PFKT 160856Z AUTO 02017G26KT 10SM CLR M12/M17 A2954 RMK AO2 PK WND 02027/0824 SLP005 T11171167 410611139 50002 FZRANO

Laikas: 00:37 (09:37 UTC)


TAF: trūkstamas

Orai ataskaitas ir orų prognozės (METAR, TAF).

turimą stotys yra geltonos ir raudonos taškus žemėlapyje.

Perkelti pele per norėdami pamatyti stoties vardą.

Tada spustelėkite, norėdami matyti oro stebėjimo ir prognozės.

Norėdami pakeisti žemėlapį: spustelėkite ant žalios mygtukų su juodo kryžiaus žemyn,; žalią mygtuką su brūkšneliu, jei norite nutolinti; arba žalių rodyklių gretimoms žemėlapius.


METAR-TAF: